You are not logged in, Click here to log in
機場資訊:RPVM Welcome to Taiwan Airways 台灣虛擬航空
ICAO: RPVM Country: 菲律賓米沙鄢群島
Latitude: 10.3133 Longitude: 123.983
Total Arrivals: 8 Total Departures: 9
Latest Arrival: BR281 (RCTP-RPVM)Lun. Wang Latest Departure: FS71 (RPVM-RKPK)ALAN. LIU
Scenery:
METAR : RPVM 141800Z 13003KT 9999 FEW018CB OVC090 26/24 Q1011 RMK A2985 CB NE E-SE

麥克坦-宿霧國際機場CEB